sensor_id;sensor_type;location;lat;lon;timestamp;temperature;humidity
73572;DHT22;61854;48.510;-2.770;2023-12-20T00:00:35;9.50;99.90
73572;DHT22;61854;48.510;-2.770;2023-12-20T00:03:03;9.40;99.90
73572;DHT22;61854;48.510;-2.770;2023-12-20T00:05:28;9.30;99.90
73572;DHT22;61854;48.510;-2.770;2023-12-20T00:07:54;9.30;99.90
73572;DHT22;61854;48.510;-2.770;2023-12-20T00:10:19;9.30;99.90
73572;DHT22;61854;48.510;-2.770;2023-12-20T00:12:45;9.20;99.90
73572;DHT22;61854;48.510;-2.770;2023-12-20T00:15:11;9.10;99.90
73572;DHT22;61854;48.510;-2.770;2023-12-20T00:17:36;9.00;99.90
73572;DHT22;61854;48.510;-2.770;2023-12-20T00:20:02;9.00;99.90
73572;DHT22;61854;48.510;-2.770;2023-12-20T00:22:28;9.10;99.90
73572;DHT22;61854;48.510;-2.770;2023-12-20T00:24:53;9.00;99.90
73572;DHT22;61854;48.510;-2.770;2023-12-20T00:27:19;8.90;99.90
73572;DHT22;61854;48.510;-2.770;2023-12-20T00:29:45;8.80;99.90
73572;DHT22;61854;48.510;-2.770;2023-12-20T00:32:13;8.80;99.90
73572;DHT22;61854;48.510;-2.770;2023-12-20T00:34:39;8.80;99.90
73572;DHT22;61854;48.510;-2.770;2023-12-20T00:37:04;8.70;99.90
73572;DHT22;61854;48.510;-2.770;2023-12-20T00:39:30;8.70;99.90
73572;DHT22;61854;48.510;-2.770;2023-12-20T00:41:56;8.70;99.90
73572;DHT22;61854;48.510;-2.770;2023-12-20T00:44:22;8.70;99.90
73572;DHT22;61854;48.510;-2.770;2023-12-20T00:46:47;8.80;99.90
73572;DHT22;61854;48.510;-2.770;2023-12-20T00:49:13;8.80;99.90
73572;DHT22;61854;48.510;-2.770;2023-12-20T00:51:38;8.90;99.90
73572;DHT22;61854;48.510;-2.770;2023-12-20T00:54:04;8.90;99.90
73572;DHT22;61854;48.510;-2.770;2023-12-20T00:56:30;8.90;99.90
73572;DHT22;61854;48.510;-2.770;2023-12-20T00:58:55;8.90;99.90
73572;DHT22;61854;48.510;-2.770;2023-12-20T01:01:21;8.80;99.90
73572;DHT22;61854;48.510;-2.770;2023-12-20T01:03:47;8.90;99.90
73572;DHT22;61854;48.510;-2.770;2023-12-20T01:06:13;8.90;99.90
73572;DHT22;61854;48.510;-2.770;2023-12-20T01:08:39;8.80;99.90
73572;DHT22;61854;48.510;-2.770;2023-12-20T01:11:05;8.80;99.90
73572;DHT22;61854;48.510;-2.770;2023-12-20T01:13:31;8.70;99.90
73572;DHT22;61854;48.510;-2.770;2023-12-20T01:15:57;8.60;99.90
73572;DHT22;61854;48.510;-2.770;2023-12-20T01:18:22;8.70;99.90
73572;DHT22;61854;48.510;-2.770;2023-12-20T01:20:48;8.70;99.90
73572;DHT22;61854;48.510;-2.770;2023-12-20T01:23:13;8.70;99.90
73572;DHT22;61854;48.510;-2.770;2023-12-20T01:25:39;8.80;99.90
73572;DHT22;61854;48.510;-2.770;2023-12-20T01:28:05;8.80;99.90
73572;DHT22;61854;48.510;-2.770;2023-12-20T01:30:30;8.90;99.90
73572;DHT22;61854;48.510;-2.770;2023-12-20T01:32:56;9.00;99.90
73572;DHT22;61854;48.510;-2.770;2023-12-20T01:35:22;9.00;99.90
73572;DHT22;61854;48.510;-2.770;2023-12-20T01:37:47;9.00;99.90
73572;DHT22;61854;48.510;-2.770;2023-12-20T01:40:13;9.00;99.90
73572;DHT22;61854;48.510;-2.770;2023-12-20T01:42:38;9.00;99.90
73572;DHT22;61854;48.510;-2.770;2023-12-20T01:45:04;9.10;99.90
73572;DHT22;61854;48.510;-2.770;2023-12-20T01:47:30;9.10;99.90
73572;DHT22;61854;48.510;-2.770;2023-12-20T01:49:56;9.00;99.90
73572;DHT22;61854;48.510;-2.770;2023-12-20T01:52:23;9.00;99.90
73572;DHT22;61854;48.510;-2.770;2023-12-20T01:54:49;9.00;99.90
73572;DHT22;61854;48.510;-2.770;2023-12-20T01:57:15;9.00;99.90
73572;DHT22;61854;48.510;-2.770;2023-12-20T01:59:41;9.00;99.90
73572;DHT22;61854;48.510;-2.770;2023-12-20T02:02:07;9.00;99.90
73572;DHT22;61854;48.510;-2.770;2023-12-20T02:04:33;9.00;99.90
73572;DHT22;61854;48.510;-2.770;2023-12-20T02:06:59;8.90;99.90
73572;DHT22;61854;48.510;-2.770;2023-12-20T02:09:25;9.00;99.90
73572;DHT22;61854;48.510;-2.770;2023-12-20T02:11:51;8.90;99.90
73572;DHT22;61854;48.510;-2.770;2023-12-20T02:14:16;8.90;99.90
73572;DHT22;61854;48.510;-2.770;2023-12-20T02:16:42;8.80;99.90
73572;DHT22;61854;48.510;-2.770;2023-12-20T02:19:13;8.70;99.90
73572;DHT22;61854;48.510;-2.770;2023-12-20T02:21:42;8.90;99.90
73572;DHT22;61854;48.510;-2.770;2023-12-20T02:24:08;8.80;99.90
73572;DHT22;61854;48.510;-2.770;2023-12-20T02:26:34;8.80;99.90
73572;DHT22;61854;48.510;-2.770;2023-12-20T02:29:00;8.60;99.90
73572;DHT22;61854;48.510;-2.770;2023-12-20T02:31:25;8.70;99.90
73572;DHT22;61854;48.510;-2.770;2023-12-20T02:33:51;8.70;99.90
73572;DHT22;61854;48.510;-2.770;2023-12-20T02:36:17;8.80;99.90
73572;DHT22;61854;48.510;-2.770;2023-12-20T02:38:42;8.90;99.90
73572;DHT22;61854;48.510;-2.770;2023-12-20T02:41:08;8.80;99.90
73572;DHT22;61854;48.510;-2.770;2023-12-20T02:43:33;8.90;99.90
73572;DHT22;61854;48.510;-2.770;2023-12-20T02:45:59;8.80;99.90
73572;DHT22;61854;48.510;-2.770;2023-12-20T02:48:24;8.80;99.90
73572;DHT22;61854;48.510;-2.770;2023-12-20T02:50:50;8.80;99.90
73572;DHT22;61854;48.510;-2.770;2023-12-20T02:53:16;8.80;99.90
73572;DHT22;61854;48.510;-2.770;2023-12-20T02:55:42;8.90;99.90
73572;DHT22;61854;48.510;-2.770;2023-12-20T02:58:07;8.80;99.90
73572;DHT22;61854;48.510;-2.770;2023-12-20T03:00:33;8.80;99.90
73572;DHT22;61854;48.510;-2.770;2023-12-20T03:02:59;8.80;99.90
73572;DHT22;61854;48.510;-2.770;2023-12-20T03:05:25;8.80;99.90
73572;DHT22;61854;48.510;-2.770;2023-12-20T03:07:51;8.80;99.90
73572;DHT22;61854;48.510;-2.770;2023-12-20T03:10:18;8.80;99.90
73572;DHT22;61854;48.510;-2.770;2023-12-20T03:12:44;8.70;99.90
73572;DHT22;61854;48.510;-2.770;2023-12-20T03:15:10;8.70;99.90
73572;DHT22;61854;48.510;-2.770;2023-12-20T03:17:36;8.60;99.90
73572;DHT22;61854;48.510;-2.770;2023-12-20T03:20:02;8.60;99.90
73572;DHT22;61854;48.510;-2.770;2023-12-20T03:22:27;8.60;99.90
73572;DHT22;61854;48.510;-2.770;2023-12-20T03:24:53;8.50;99.90
73572;DHT22;61854;48.510;-2.770;2023-12-20T03:27:18;8.50;99.90
73572;DHT22;61854;48.510;-2.770;2023-12-20T03:29:44;8.50;99.90
73572;DHT22;61854;48.510;-2.770;2023-12-20T03:32:10;8.50;99.90
73572;DHT22;61854;48.510;-2.770;2023-12-20T03:34:35;8.50;99.90
73572;DHT22;61854;48.510;-2.770;2023-12-20T03:37:01;8.50;99.90
73572;DHT22;61854;48.510;-2.770;2023-12-20T03:39:26;8.50;99.90
73572;DHT22;61854;48.510;-2.770;2023-12-20T03:41:52;8.60;99.90
73572;DHT22;61854;48.510;-2.770;2023-12-20T03:44:18;8.50;99.90
73572;DHT22;61854;48.510;-2.770;2023-12-20T03:46:43;8.50;99.90
73572;DHT22;61854;48.510;-2.770;2023-12-20T03:49:11;8.50;99.90
73572;DHT22;61854;48.510;-2.770;2023-12-20T03:51:36;8.40;99.90
73572;DHT22;61854;48.510;-2.770;2023-12-20T03:54:02;8.40;99.90
73572;DHT22;61854;48.510;-2.770;2023-12-20T03:56:28;8.40;99.90
73572;DHT22;61854;48.510;-2.770;2023-12-20T03:58:54;8.40;99.90
73572;DHT22;61854;48.510;-2.770;2023-12-20T04:01:19;8.40;99.90
73572;DHT22;61854;48.510;-2.770;2023-12-20T04:03:45;8.40;99.90
73572;DHT22;61854;48.510;-2.770;2023-12-20T04:06:16;8.40;99.90
73572;DHT22;61854;48.510;-2.770;2023-12-20T04:08:42;8.50;99.90
73572;DHT22;61854;48.510;-2.770;2023-12-20T04:11:08;8.40;99.90
73572;DHT22;61854;48.510;-2.770;2023-12-20T04:13:33;8.40;99.90
73572;DHT22;61854;48.510;-2.770;2023-12-20T04:15:59;8.30;99.90
73572;DHT22;61854;48.510;-2.770;2023-12-20T04:18:24;8.40;99.90
73572;DHT22;61854;48.510;-2.770;2023-12-20T04:20:50;8.40;99.90
73572;DHT22;61854;48.510;-2.770;2023-12-20T04:23:17;8.30;99.90
73572;DHT22;61854;48.510;-2.770;2023-12-20T04:25:42;8.20;99.90
73572;DHT22;61854;48.510;-2.770;2023-12-20T04:28:08;8.20;99.90
73572;DHT22;61854;48.510;-2.770;2023-12-20T04:30:33;8.20;99.90
73572;DHT22;61854;48.510;-2.770;2023-12-20T04:32:59;8.30;99.90
73572;DHT22;61854;48.510;-2.770;2023-12-20T04:35:24;8.30;99.90
73572;DHT22;61854;48.510;-2.770;2023-12-20T04:37:51;8.40;99.90
73572;DHT22;61854;48.510;-2.770;2023-12-20T04:40:17;8.40;99.90
73572;DHT22;61854;48.510;-2.770;2023-12-20T04:42:42;8.40;99.90
73572;DHT22;61854;48.510;-2.770;2023-12-20T04:45:08;8.30;99.90
73572;DHT22;61854;48.510;-2.770;2023-12-20T04:47:34;8.20;99.90
73572;DHT22;61854;48.510;-2.770;2023-12-20T04:49:59;8.20;99.90
73572;DHT22;61854;48.510;-2.770;2023-12-20T04:52:25;8.20;99.90
73572;DHT22;61854;48.510;-2.770;2023-12-20T04:54:51;8.20;99.90
73572;DHT22;61854;48.510;-2.770;2023-12-20T04:57:16;8.20;99.90
73572;DHT22;61854;48.510;-2.770;2023-12-20T04:59:42;8.20;99.90
73572;DHT22;61854;48.510;-2.770;2023-12-20T05:02:08;8.20;99.90
73572;DHT22;61854;48.510;-2.770;2023-12-20T05:04:33;8.10;99.90
73572;DHT22;61854;48.510;-2.770;2023-12-20T05:06:59;8.20;99.90
73572;DHT22;61854;48.510;-2.770;2023-12-20T05:09:25;8.10;99.90
73572;DHT22;61854;48.510;-2.770;2023-12-20T05:11:50;8.10;99.90
73572;DHT22;61854;48.510;-2.770;2023-12-20T05:14:16;8.10;99.90
73572;DHT22;61854;48.510;-2.770;2023-12-20T05:16:42;8.10;99.90
73572;DHT22;61854;48.510;-2.770;2023-12-20T05:19:07;8.20;99.90
73572;DHT22;61854;48.510;-2.770;2023-12-20T05:21:33;8.20;99.90
73572;DHT22;61854;48.510;-2.770;2023-12-20T05:23:59;8.30;99.90
73572;DHT22;61854;48.510;-2.770;2023-12-20T05:26:25;8.40;99.90
73572;DHT22;61854;48.510;-2.770;2023-12-20T05:28:50;8.40;99.90
73572;DHT22;61854;48.510;-2.770;2023-12-20T05:31:16;8.40;99.90
73572;DHT22;61854;48.510;-2.770;2023-12-20T05:33:41;8.50;99.90
73572;DHT22;61854;48.510;-2.770;2023-12-20T05:36:07;8.40;99.90
73572;DHT22;61854;48.510;-2.770;2023-12-20T05:38:36;8.30;99.90
73572;DHT22;61854;48.510;-2.770;2023-12-20T05:41:02;8.30;99.90
73572;DHT22;61854;48.510;-2.770;2023-12-20T05:43:29;8.30;99.90
73572;DHT22;61854;48.510;-2.770;2023-12-20T05:45:54;8.40;99.90
73572;DHT22;61854;48.510;-2.770;2023-12-20T05:48:20;8.40;99.90
73572;DHT22;61854;48.510;-2.770;2023-12-20T05:50:45;8.30;99.90
73572;DHT22;61854;48.510;-2.770;2023-12-20T05:53:11;8.30;99.90
73572;DHT22;61854;48.510;-2.770;2023-12-20T05:55:37;8.30;99.90
73572;DHT22;61854;48.510;-2.770;2023-12-20T05:58:02;8.30;99.90
73572;DHT22;61854;48.510;-2.770;2023-12-20T06:00:28;8.50;99.90
73572;DHT22;61854;48.510;-2.770;2023-12-20T06:02:54;8.50;99.90
73572;DHT22;61854;48.510;-2.770;2023-12-20T06:05:20;8.50;99.90
73572;DHT22;61854;48.510;-2.770;2023-12-20T06:07:45;8.50;99.90
73572;DHT22;61854;48.510;-2.770;2023-12-20T06:10:13;8.40;99.90
73572;DHT22;61854;48.510;-2.770;2023-12-20T06:12:39;8.50;99.90
73572;DHT22;61854;48.510;-2.770;2023-12-20T06:15:05;8.50;99.90
73572;DHT22;61854;48.510;-2.770;2023-12-20T06:17:31;8.40;99.90
73572;DHT22;61854;48.510;-2.770;2023-12-20T06:19:57;8.40;99.90
73572;DHT22;61854;48.510;-2.770;2023-12-20T06:22:23;8.40;99.90
73572;DHT22;61854;48.510;-2.770;2023-12-20T06:24:51;8.40;99.90
73572;DHT22;61854;48.510;-2.770;2023-12-20T06:27:17;8.30;99.90
73572;DHT22;61854;48.510;-2.770;2023-12-20T06:29:43;8.30;99.90
73572;DHT22;61854;48.510;-2.770;2023-12-20T06:32:10;8.40;99.90
73572;DHT22;61854;48.510;-2.770;2023-12-20T06:34:35;8.40;99.90
73572;DHT22;61854;48.510;-2.770;2023-12-20T06:37:01;8.40;99.90
73572;DHT22;61854;48.510;-2.770;2023-12-20T06:39:27;8.40;99.90
73572;DHT22;61854;48.510;-2.770;2023-12-20T06:41:53;8.50;99.90
73572;DHT22;61854;48.510;-2.770;2023-12-20T06:44:19;8.40;99.90
73572;DHT22;61854;48.510;-2.770;2023-12-20T06:46:44;8.50;99.90
73572;DHT22;61854;48.510;-2.770;2023-12-20T06:49:10;8.60;99.90
73572;DHT22;61854;48.510;-2.770;2023-12-20T06:51:35;8.50;99.90
73572;DHT22;61854;48.510;-2.770;2023-12-20T06:54:01;8.60;99.90
73572;DHT22;61854;48.510;-2.770;2023-12-20T06:56:28;8.50;99.90
73572;DHT22;61854;48.510;-2.770;2023-12-20T06:58:53;8.60;99.90
73572;DHT22;61854;48.510;-2.770;2023-12-20T07:01:19;8.60;99.90
73572;DHT22;61854;48.510;-2.770;2023-12-20T07:03:44;8.60;99.90
73572;DHT22;61854;48.510;-2.770;2023-12-20T07:06:10;8.60;99.90
73572;DHT22;61854;48.510;-2.770;2023-12-20T07:08:36;8.70;99.90
73572;DHT22;61854;48.510;-2.770;2023-12-20T07:11:02;8.70;99.90
73572;DHT22;61854;48.510;-2.770;2023-12-20T07:13:27;8.80;99.90
73572;DHT22;61854;48.510;-2.770;2023-12-20T07:15:53;8.90;99.90
73572;DHT22;61854;48.510;-2.770;2023-12-20T07:18:19;8.90;99.90
73572;DHT22;61854;48.510;-2.770;2023-12-20T07:20:44;8.90;99.90
73572;DHT22;61854;48.510;-2.770;2023-12-20T07:23:10;8.90;99.90
73572;DHT22;61854;48.510;-2.770;2023-12-20T07:25:35;8.80;99.90
73572;DHT22;61854;48.510;-2.770;2023-12-20T07:28:01;8.80;99.90
73572;DHT22;61854;48.510;-2.770;2023-12-20T07:30:27;8.70;99.90
73572;DHT22;61854;48.510;-2.770;2023-12-20T07:32:53;8.70;99.90
73572;DHT22;61854;48.510;-2.770;2023-12-20T07:35:19;8.70;99.90
73572;DHT22;61854;48.510;-2.770;2023-12-20T07:37:44;8.70;99.90
73572;DHT22;61854;48.510;-2.770;2023-12-20T07:40:10;8.70;99.90
73572;DHT22;61854;48.510;-2.770;2023-12-20T07:42:36;8.70;99.90
73572;DHT22;61854;48.510;-2.770;2023-12-20T07:45:02;8.70;99.90
73572;DHT22;61854;48.510;-2.770;2023-12-20T07:47:28;8.70;99.90
73572;DHT22;61854;48.510;-2.770;2023-12-20T07:49:54;8.70;99.90
73572;DHT22;61854;48.510;-2.770;2023-12-20T07:52:19;8.80;99.90
73572;DHT22;61854;48.510;-2.770;2023-12-20T07:54:47;8.80;99.90
73572;DHT22;61854;48.510;-2.770;2023-12-20T07:57:12;8.80;99.90
73572;DHT22;61854;48.510;-2.770;2023-12-20T07:59:38;8.90;99.90
73572;DHT22;61854;48.510;-2.770;2023-12-20T08:02:04;8.90;99.90
73572;DHT22;61854;48.510;-2.770;2023-12-20T08:04:29;8.90;99.90
73572;DHT22;61854;48.510;-2.770;2023-12-20T08:06:55;8.90;99.90
73572;DHT22;61854;48.510;-2.770;2023-12-20T08:09:21;8.80;99.90
73572;DHT22;61854;48.510;-2.770;2023-12-20T08:11:48;8.70;99.90
73572;DHT22;61854;48.510;-2.770;2023-12-20T08:14:15;8.70;99.90
73572;DHT22;61854;48.510;-2.770;2023-12-20T08:16:41;8.70;99.90
73572;DHT22;61854;48.510;-2.770;2023-12-20T08:19:06;8.70;99.90
73572;DHT22;61854;48.510;-2.770;2023-12-20T08:21:33;8.70;99.90
73572;DHT22;61854;48.510;-2.770;2023-12-20T08:23:58;8.70;99.90
73572;DHT22;61854;48.510;-2.770;2023-12-20T08:26:26;8.80;99.90
73572;DHT22;61854;48.510;-2.770;2023-12-20T08:28:52;8.80;99.90
73572;DHT22;61854;48.510;-2.770;2023-12-20T08:31:18;9.00;99.90
73572;DHT22;61854;48.510;-2.770;2023-12-20T08:33:45;9.10;99.90
73572;DHT22;61854;48.510;-2.770;2023-12-20T08:36:11;9.00;99.90
73572;DHT22;61854;48.510;-2.770;2023-12-20T08:38:37;9.10;99.90
73572;DHT22;61854;48.510;-2.770;2023-12-20T08:41:03;9.00;99.90
73572;DHT22;61854;48.510;-2.770;2023-12-20T08:43:31;9.00;99.90
73572;DHT22;61854;48.510;-2.770;2023-12-20T08:45:57;9.00;99.90
73572;DHT22;61854;48.510;-2.770;2023-12-20T08:48:22;9.00;99.90
73572;DHT22;61854;48.510;-2.770;2023-12-20T08:50:48;9.00;99.90
73572;DHT22;61854;48.510;-2.770;2023-12-20T08:53:15;9.10;99.90
73572;DHT22;61854;48.510;-2.770;2023-12-20T08:55:42;9.10;99.90
73572;DHT22;61854;48.510;-2.770;2023-12-20T08:58:07;9.10;99.90
73572;DHT22;61854;48.510;-2.770;2023-12-20T09:00:34;9.10;99.90
73572;DHT22;61854;48.510;-2.770;2023-12-20T09:03:00;9.20;99.90
73572;DHT22;61854;48.510;-2.770;2023-12-20T09:05:26;9.30;99.90
73572;DHT22;61854;48.510;-2.770;2023-12-20T09:07:52;9.30;99.90
73572;DHT22;61854;48.510;-2.770;2023-12-20T09:10:17;9.30;99.90
73572;DHT22;61854;48.510;-2.770;2023-12-20T09:12:51;9.40;99.90
73572;DHT22;61854;48.510;-2.770;2023-12-20T09:15:17;9.60;99.90
73572;DHT22;61854;48.510;-2.770;2023-12-20T09:17:43;9.60;99.90
73572;DHT22;61854;48.510;-2.770;2023-12-20T09:20:09;9.50;99.90
73572;DHT22;61854;48.510;-2.770;2023-12-20T09:22:38;9.50;99.90
73572;DHT22;61854;48.510;-2.770;2023-12-20T09:25:05;9.40;99.90
73572;DHT22;61854;48.510;-2.770;2023-12-20T09:27:33;9.50;99.90
73572;DHT22;61854;48.510;-2.770;2023-12-20T09:29:59;9.60;99.90
73572;DHT22;61854;48.510;-2.770;2023-12-20T09:32:24;9.50;99.90
73572;DHT22;61854;48.510;-2.770;2023-12-20T09:34:50;9.50;99.90
73572;DHT22;61854;48.510;-2.770;2023-12-20T09:37:15;9.50;99.90
73572;DHT22;61854;48.510;-2.770;2023-12-20T09:39:41;9.60;99.90
73572;DHT22;61854;48.510;-2.770;2023-12-20T09:42:07;9.70;99.90
73572;DHT22;61854;48.510;-2.770;2023-12-20T09:44:34;10.00;99.90
73572;DHT22;61854;48.510;-2.770;2023-12-20T09:47:02;10.10;99.90
73572;DHT22;61854;48.510;-2.770;2023-12-20T09:49:29;10.20;99.90
73572;DHT22;61854;48.510;-2.770;2023-12-20T09:51:59;10.20;99.90
73572;DHT22;61854;48.510;-2.770;2023-12-20T09:54:26;10.40;99.90
73572;DHT22;61854;48.510;-2.770;2023-12-20T09:56:52;10.40;99.90
73572;DHT22;61854;48.510;-2.770;2023-12-20T09:59:18;10.30;99.90
73572;DHT22;61854;48.510;-2.770;2023-12-20T10:01:43;10.40;99.90
73572;DHT22;61854;48.510;-2.770;2023-12-20T10:04:10;10.40;99.90
73572;DHT22;61854;48.510;-2.770;2023-12-20T10:06:39;10.30;99.90
73572;DHT22;61854;48.510;-2.770;2023-12-20T10:09:04;10.20;99.90
73572;DHT22;61854;48.510;-2.770;2023-12-20T10:11:31;10.20;99.90
73572;DHT22;61854;48.510;-2.770;2023-12-20T10:13:59;10.20;99.90
73572;DHT22;61854;48.510;-2.770;2023-12-20T10:16:28;10.30;99.90
73572;DHT22;61854;48.510;-2.770;2023-12-20T10:18:55;10.30;99.90
73572;DHT22;61854;48.510;-2.770;2023-12-20T10:21:21;10.40;99.90
73572;DHT22;61854;48.510;-2.770;2023-12-20T10:23:48;10.50;99.90
73572;DHT22;61854;48.510;-2.770;2023-12-20T10:26:41;10.60;99.90
73572;DHT22;61854;48.510;-2.770;2023-12-20T10:29:06;10.70;99.90
73572;DHT22;61854;48.510;-2.770;2023-12-20T10:31:33;10.70;99.90
73572;DHT22;61854;48.510;-2.770;2023-12-20T10:34:01;10.70;99.90
73572;DHT22;61854;48.510;-2.770;2023-12-20T10:36:33;10.80;99.90
73572;DHT22;61854;48.510;-2.770;2023-12-20T10:38:59;10.70;99.90
73572;DHT22;61854;48.510;-2.770;2023-12-20T10:41:30;10.70;99.90
73572;DHT22;61854;48.510;-2.770;2023-12-20T10:43:59;10.70;99.90
73572;DHT22;61854;48.510;-2.770;2023-12-20T10:46:28;10.90;99.90
73572;DHT22;61854;48.510;-2.770;2023-12-20T10:48:55;11.00;99.90
73572;DHT22;61854;48.510;-2.770;2023-12-20T10:51:22;11.10;99.90
73572;DHT22;61854;48.510;-2.770;2023-12-20T10:53:48;11.00;99.90
73572;DHT22;61854;48.510;-2.770;2023-12-20T10:56:18;10.90;99.90
73572;DHT22;61854;48.510;-2.770;2023-12-20T10:58:46;11.00;99.90
73572;DHT22;61854;48.510;-2.770;2023-12-20T11:01:16;10.80;99.90
73572;DHT22;61854;48.510;-2.770;2023-12-20T11:03:49;10.80;99.90
73572;DHT22;61854;48.510;-2.770;2023-12-20T11:06:26;10.80;99.90
73572;DHT22;61854;48.510;-2.770;2023-12-20T11:14:40;10.60;99.90
73572;DHT22;61854;48.510;-2.770;2023-12-20T11:17:11;10.60;99.90
73572;DHT22;61854;48.510;-2.770;2023-12-20T11:22:35;10.60;99.90
73572;DHT22;61854;48.510;-2.770;2023-12-20T11:25:05;10.60;99.90
73572;DHT22;61854;48.510;-2.770;2023-12-20T11:27:32;10.50;99.90
73572;DHT22;61854;48.510;-2.770;2023-12-20T11:29:59;10.60;99.90
73572;DHT22;61854;48.510;-2.770;2023-12-20T11:34:59;10.70;99.90
73572;DHT22;61854;48.510;-2.770;2023-12-20T11:37:29;10.70;99.90
73572;DHT22;61854;48.510;-2.770;2023-12-20T11:40:11;10.70;99.90
73572;DHT22;61854;48.510;-2.770;2023-12-20T11:42:41;10.90;99.90
73572;DHT22;61854;48.510;-2.770;2023-12-20T11:45:10;10.90;99.90
73572;DHT22;61854;48.510;-2.770;2023-12-20T11:47:37;10.90;99.90
73572;DHT22;61854;48.510;-2.770;2023-12-20T11:50:03;10.90;99.90
73572;DHT22;61854;48.510;-2.770;2023-12-20T11:52:30;11.00;99.90
73572;DHT22;61854;48.510;-2.770;2023-12-20T11:54:56;11.10;99.90
73572;DHT22;61854;48.510;-2.770;2023-12-20T11:57:22;11.40;99.90
73572;DHT22;61854;48.510;-2.770;2023-12-20T11:59:48;11.50;99.90
73572;DHT22;61854;48.510;-2.770;2023-12-20T12:02:14;11.50;99.90
73572;DHT22;61854;48.510;-2.770;2023-12-20T12:04:43;11.60;99.90
73572;DHT22;61854;48.510;-2.770;2023-12-20T12:07:09;11.70;99.90
73572;DHT22;61854;48.510;-2.770;2023-12-20T12:09:35;11.90;99.90
73572;DHT22;61854;48.510;-2.770;2023-12-20T12:12:01;11.80;99.90
73572;DHT22;61854;48.510;-2.770;2023-12-20T12:14:26;11.60;99.90
73572;DHT22;61854;48.510;-2.770;2023-12-20T12:16:52;11.50;99.90
73572;DHT22;61854;48.510;-2.770;2023-12-20T12:19:22;11.60;99.90
73572;DHT22;61854;48.510;-2.770;2023-12-20T12:21:49;11.50;99.90
73572;DHT22;61854;48.510;-2.770;2023-12-20T12:24:15;11.50;99.90
73572;DHT22;61854;48.510;-2.770;2023-12-20T12:26:40;11.50;99.90
73572;DHT22;61854;48.510;-2.770;2023-12-20T12:29:09;11.50;99.90
73572;DHT22;61854;48.510;-2.770;2023-12-20T12:31:35;11.50;99.90
73572;DHT22;61854;48.510;-2.770;2023-12-20T12:34:01;11.50;99.90
73572;DHT22;61854;48.510;-2.770;2023-12-20T12:36:29;11.60;99.90
73572;DHT22;61854;48.510;-2.770;2023-12-20T12:38:57;11.60;99.90
73572;DHT22;61854;48.510;-2.770;2023-12-20T12:41:23;11.80;99.90
73572;DHT22;61854;48.510;-2.770;2023-12-20T12:43:49;11.70;99.90
73572;DHT22;61854;48.510;-2.770;2023-12-20T12:46:14;11.90;99.90
73572;DHT22;61854;48.510;-2.770;2023-12-20T12:48:40;12.00;99.90
73572;DHT22;61854;48.510;-2.770;2023-12-20T12:51:06;12.20;99.90
73572;DHT22;61854;48.510;-2.770;2023-12-20T12:53:32;12.00;99.90
73572;DHT22;61854;48.510;-2.770;2023-12-20T12:55:58;11.90;99.90
73572;DHT22;61854;48.510;-2.770;2023-12-20T12:58:23;11.90;99.90
73572;DHT22;61854;48.510;-2.770;2023-12-20T13:00:51;11.90;99.90
73572;DHT22;61854;48.510;-2.770;2023-12-20T13:03:17;11.80;99.90
73572;DHT22;61854;48.510;-2.770;2023-12-20T13:05:42;11.90;99.90
73572;DHT22;61854;48.510;-2.770;2023-12-20T13:08:08;11.90;99.90
73572;DHT22;61854;48.510;-2.770;2023-12-20T13:10:35;12.00;99.90
73572;DHT22;61854;48.510;-2.770;2023-12-20T13:13:00;12.00;99.90
73572;DHT22;61854;48.510;-2.770;2023-12-20T13:15:26;11.90;99.90
73572;DHT22;61854;48.510;-2.770;2023-12-20T13:17:51;11.90;99.90
73572;DHT22;61854;48.510;-2.770;2023-12-20T13:20:17;11.90;99.90
73572;DHT22;61854;48.510;-2.770;2023-12-20T13:22:42;11.70;99.90
73572;DHT22;61854;48.510;-2.770;2023-12-20T13:25:08;11.70;99.90
73572;DHT22;61854;48.510;-2.770;2023-12-20T13:27:34;11.60;99.90
73572;DHT22;61854;48.510;-2.770;2023-12-20T13:30:00;11.70;99.90
73572;DHT22;61854;48.510;-2.770;2023-12-20T13:32:25;11.60;99.90
73572;DHT22;61854;48.510;-2.770;2023-12-20T13:34:51;11.70;99.90
73572;DHT22;61854;48.510;-2.770;2023-12-20T13:37:16;11.90;99.90
73572;DHT22;61854;48.510;-2.770;2023-12-20T13:39:42;11.70;99.90
73572;DHT22;61854;48.510;-2.770;2023-12-20T13:42:08;11.70;99.90
73572;DHT22;61854;48.510;-2.770;2023-12-20T13:44:33;11.70;99.90
73572;DHT22;61854;48.510;-2.770;2023-12-20T13:46:59;11.70;99.90
73572;DHT22;61854;48.510;-2.770;2023-12-20T13:49:25;11.70;99.90
73572;DHT22;61854;48.510;-2.770;2023-12-20T13:51:51;11.80;99.90
73572;DHT22;61854;48.510;-2.770;2023-12-20T13:54:16;11.70;99.90
73572;DHT22;61854;48.510;-2.770;2023-12-20T13:56:45;11.90;99.90
73572;DHT22;61854;48.510;-2.770;2023-12-20T13:59:11;11.80;99.90
73572;DHT22;61854;48.510;-2.770;2023-12-20T14:01:38;11.70;99.90
73572;DHT22;61854;48.510;-2.770;2023-12-20T14:04:03;11.70;99.90
73572;DHT22;61854;48.510;-2.770;2023-12-20T14:06:29;11.80;99.90
73572;DHT22;61854;48.510;-2.770;2023-12-20T14:08:55;11.90;99.90
73572;DHT22;61854;48.510;-2.770;2023-12-20T14:11:21;11.90;99.90
73572;DHT22;61854;48.510;-2.770;2023-12-20T14:13:46;11.90;99.90
73572;DHT22;61854;48.510;-2.770;2023-12-20T14:16:12;12.00;99.90
73572;DHT22;61854;48.510;-2.770;2023-12-20T14:18:38;12.00;99.90
73572;DHT22;61854;48.510;-2.770;2023-12-20T14:21:05;11.90;99.90
73572;DHT22;61854;48.510;-2.770;2023-12-20T14:23:31;12.00;99.90
73572;DHT22;61854;48.510;-2.770;2023-12-20T14:25:59;11.70;99.90
73572;DHT22;61854;48.510;-2.770;2023-12-20T14:28:25;11.70;99.90
73572;DHT22;61854;48.510;-2.770;2023-12-20T14:30:51;11.60;99.90
73572;DHT22;61854;48.510;-2.770;2023-12-20T14:33:16;11.50;99.90
73572;DHT22;61854;48.510;-2.770;2023-12-20T14:35:42;11.40;99.90
73572;DHT22;61854;48.510;-2.770;2023-12-20T14:38:09;11.40;99.90
73572;DHT22;61854;48.510;-2.770;2023-12-20T14:40:35;11.50;99.90
73572;DHT22;61854;48.510;-2.770;2023-12-20T14:43:01;11.50;99.90
73572;DHT22;61854;48.510;-2.770;2023-12-20T14:45:29;11.50;99.90
73572;DHT22;61854;48.510;-2.770;2023-12-20T14:47:55;11.30;99.90
73572;DHT22;61854;48.510;-2.770;2023-12-20T14:50:21;11.40;99.90
73572;DHT22;61854;48.510;-2.770;2023-12-20T14:52:47;11.40;99.90
73572;DHT22;61854;48.510;-2.770;2023-12-20T14:55:13;11.40;99.90
73572;DHT22;61854;48.510;-2.770;2023-12-20T14:57:39;11.50;99.90
73572;DHT22;61854;48.510;-2.770;2023-12-20T15:00:05;11.50;99.90
73572;DHT22;61854;48.510;-2.770;2023-12-20T15:02:31;11.40;99.90
73572;DHT22;61854;48.510;-2.770;2023-12-20T15:04:58;11.50;99.90
73572;DHT22;61854;48.510;-2.770;2023-12-20T15:07:24;11.50;99.90
73572;DHT22;61854;48.510;-2.770;2023-12-20T15:09:49;11.50;99.90
73572;DHT22;61854;48.510;-2.770;2023-12-20T15:12:15;11.40;99.90
73572;DHT22;61854;48.510;-2.770;2023-12-20T15:14:41;11.30;99.90
73572;DHT22;61854;48.510;-2.770;2023-12-20T15:17:06;11.30;99.90
73572;DHT22;61854;48.510;-2.770;2023-12-20T15:19:32;11.20;99.90
73572;DHT22;61854;48.510;-2.770;2023-12-20T15:21:58;11.20;99.90
73572;DHT22;61854;48.510;-2.770;2023-12-20T15:24:25;11.20;99.90
73572;DHT22;61854;48.510;-2.770;2023-12-20T15:27:02;11.10;99.90
73572;DHT22;61854;48.510;-2.770;2023-12-20T15:29:28;11.20;99.90